createdAt,value
2018-03-28T00:00:38.575Z,97332.06
2018-03-28T00:21:10.507Z,97336.34
2018-03-28T00:41:45.778Z,97326.37
2018-03-28T01:02:19.822Z,97314.86
2018-03-28T01:40:55.844Z,97281.83
2018-03-28T02:01:28.038Z,97276.32
2018-03-28T02:22:03.315Z,97280.20
2018-03-28T02:42:42.578Z,97284.05
2018-03-28T03:03:17.855Z,97298.57
2018-03-28T03:23:50.049Z,97295.05
2018-03-28T03:44:25.481Z,97301.98
2018-03-28T04:05:00.297Z,97311.53
2018-03-28T04:25:36.784Z,97301.81
2018-03-28T04:46:11.753Z,97294.06
2018-03-28T05:06:49.175Z,97331.77
2018-03-28T05:27:25.368Z,97316.69
2018-03-28T05:48:01.561Z,97333.20
2018-03-28T06:08:33.762Z,97328.96
2018-03-28T06:29:09.031Z,97326.19
2018-03-28T06:49:43.559Z,97329.38
2018-03-28T07:10:18.651Z,97316.27
2018-03-28T07:30:51.774Z,97302.44
2018-03-28T07:51:27.233Z,97299.58
2018-03-28T08:11:59.246Z,97326.11
2018-03-28T08:32:30.524Z,97310.86
2018-03-28T08:53:02.426Z,97299.48
2018-03-28T09:13:39.843Z,97297.67
2018-03-28T09:34:15.111Z,97262.52
2018-03-28T09:54:52.552Z,97223.64
2018-03-28T10:15:27.499Z,97207.89
2018-03-28T10:36:03.686Z,97166.74
2018-03-28T10:56:36.812Z,97126.52
2018-03-28T11:17:12.633Z,97089.45
2018-03-28T11:37:48.711Z,97048.04
2018-03-28T11:58:24.177Z,97026.56
2018-03-28T12:18:59.174Z,96989.89
2018-03-28T12:39:39.579Z,96926.84
2018-03-28T13:00:15.199Z,96859.77
2018-03-28T13:20:53.037Z,96805.39
2018-03-28T13:59:29.565Z,96733.70
2018-03-28T14:20:06.113Z,96700.39
2018-03-28T14:40:37.037Z,96666.53
2018-03-28T15:01:11.384Z,96614.92
2018-03-28T15:21:44.505Z,96597.05
2018-03-28T15:42:20.698Z,96532.55
2018-03-28T16:02:57.813Z,96507.02
2018-03-28T16:23:33.450Z,96487.03
2018-03-28T16:44:09.281Z,96467.62
2018-03-28T17:04:47.001Z,96449.14
2018-03-28T17:25:24.350Z,96455.18
2018-03-28T17:45:59.421Z,96497.53
2018-03-28T18:06:33.439Z,96531.16
2018-03-28T18:27:06.562Z,96559.25
2018-03-28T18:47:42.807Z,96578.82
2018-03-28T19:08:21.097Z,96621.18
2018-03-28T19:29:01.302Z,96691.37
2018-03-28T19:49:36.564Z,96747.34
2018-03-28T20:10:07.842Z,96786.67
2018-03-28T20:30:43.729Z,96830.16
2018-03-28T20:51:17.457Z,96852.95
2018-03-28T21:11:50.712Z,96902.54
2018-03-28T21:32:25.945Z,96946.02
2018-03-28T21:53:03.268Z,96996.11
2018-03-28T22:13:39.165Z,97014.88
2018-03-28T22:34:16.276Z,97078.98
2018-03-28T22:54:49.700Z,97068.55
2018-03-28T23:15:22.824Z,97090.16
2018-03-28T23:35:59.352Z,97131.45
2018-03-28T23:56:36.600Z,97162.67
